^^
Saratoga-Weather Station Historical Data
Daily Summary for March 30, 2020 Units:  English    Metric   Both
Daily Weekly Monthly Yearly Custom
  High: Low: Average:
Temperature: 58.8 °F 52.2 °F 55.6 °F
Dew Point: 50 °F 47.1 °F 48.6 °F
Humidity: 84% 72% 77%
Wind Speed: 6mph 0mph 1mph
Wind Gust: 9mph - -
Wind- - West
Pressure: 29.9 in 29.9 in -
Precipitation: 0 in    
Historical Graphs
 
 
Tabular Data for March 30, 2020
Time Temperature Dew Point Pressure Wind Wind Speed Wind Gust Humidity Rainfall Rate (Hourly) solar
00:03 58.8 °F 49.8 °F 29.9 in Calm     72% 0 in 0 W/m2
00:08 58.6 °F 50 °F 29.9 in Calm     73% 0 in 0 W/m2
00:13 58.6 °F 50 °F 29.9 in Calm     73% 0 in 0 W/m2
00:18 58.5 °F 49.8 °F 29.9 in Calm     73% 0 in 0 W/m2
00:23 58.3 °F 50 °F 29.9 in Calm     74% 0 in 0 W/m2
00:28 57.9 °F 49.6 °F 29.9 in West 2 mph 2 mph 74% 0 in 0 W/m2
00:33 57.9 °F 49.3 °F 29.9 in WSW 2 mph 2 mph 73% 0 in 0 W/m2
00:38 58.3 °F 49.3 °F 29.9 in West 2 mph 2 mph 72% 0 in 0 W/m2
00:43 58.3 °F 49.3 °F 29.9 in Calm   1 mph 72% 0 in 0 W/m2
00:48 58.3 °F 49.3 °F 29.9 in Calm   2 mph 72% 0 in 0 W/m2
00:53 58.5 °F 49.5 °F 29.9 in West 0.9 mph 2 mph 72% 0 in 0 W/m2
00:58 58.3 °F 49.3 °F 29.9 in Calm   2 mph 72% 0 in 0 W/m2
01:03 58.3 °F 49.3 °F 29.9 in Calm   1 mph 72% 0 in 0 W/m2
01:08 58.3 °F 49.6 °F 29.9 in Calm   2 mph 73% 0 in 0 W/m2
01:13 58.1 °F 49.5 °F 29.9 in SE 2 mph 3 mph 73% 0 in 0 W/m2
01:18 57.9 °F 49.3 °F 29.9 in Calm   2 mph 73% 0 in 0 W/m2
01:23 57.7 °F 49.5 °F 29.9 in Calm   1 mph 74% 0 in 0 W/m2
01:28 57.6 °F 49.6 °F 29.9 in Calm   1 mph 75% 0 in 0 W/m2
01:33 57.4 °F 49.5 °F 29.9 in NNW 0.9 mph 1 mph 75% 0 in 0 W/m2
01:38 57 °F 49.5 °F 29.9 in Calm   1 mph 76% 0 in 0 W/m2
01:43 56.8 °F 49.3 °F 29.9 in Calm     76% 0 in 0 W/m2
01:48 56.5 °F 49.3 °F 29.9 in Calm     77% 0 in 0 W/m2
01:53 56.1 °F 48.9 °F 29.9 in Calm   1 mph 77% 0 in 0 W/m2
01:58 55.9 °F 49.1 °F 29.9 in Calm   1 mph 78% 0 in 0 W/m2
02:03 55.8 °F 49.3 °F 29.9 in Calm     79% 0 in 0 W/m2
02:08 55.4 °F 48.9 °F 29.9 in Calm   1 mph 79% 0 in 0 W/m2
02:13 55.2 °F 48.7 °F 29.9 in Calm   4 mph 79% 0 in 0 W/m2
02:18 55 °F 48.6 °F 29.9 in NW 2.9 mph 3 mph 79% 0 in 0 W/m2
02:23 55.4 °F 48.7 °F 29.9 in Calm   1 mph 78% 0 in 0 W/m2
02:28 55.4 °F 48.7 °F 29.9 in WNW 2 mph 2 mph 78% 0 in 0 W/m2
02:33 55.6 °F 48.6 °F 29.9 in WSW 2 mph 6 mph 77% 0 in 0 W/m2
02:38 55.8 °F 48.7 °F 29.9 in NW 0.9 mph 4 mph 77% 0 in 0 W/m2
02:43 55.8 °F 48.4 °F 29.9 in West 0.9 mph 6 mph 76% 0 in 0 W/m2
02:48 55.9 °F 48.2 °F 29.9 in SW 2.9 mph 6 mph 75% 0 in 0 W/m2
02:53 55.9 °F 47.8 °F 29.9 in SW 2 mph 4 mph 74% 0 in 0 W/m2
02:58 56.1 °F 48 °F 29.9 in West 2.9 mph 4 mph 74% 0 in 0 W/m2
03:03 56.1 °F 48 °F 29.9 in WNW 0.9 mph 2 mph 74% 0 in 0 W/m2
03:08 56.1 °F 47.7 °F 29.9 in NW 0.9 mph 3 mph 73% 0 in 0 W/m2
03:13 56.1 °F 47.7 °F 29.9 in Calm   3 mph 73% 0 in 0 W/m2
03:18 56.1 °F 47.7 °F 29.9 in Calm   2 mph 73% 0 in 0 W/m2
03:23 55.9 °F 47.5 °F 29.9 in WNW 0.9 mph 3 mph 73% 0 in 0 W/m2
03:28 55.9 °F 47.5 °F 29.9 in WSW 2 mph 3 mph 73% 0 in 0 W/m2
03:33 55.9 °F 47.8 °F 29.9 in West 0.9 mph 2 mph 74% 0 in 0 W/m2
03:38 55.9 °F 47.8 °F 29.9 in Calm   2 mph 74% 0 in 0 W/m2
03:43 55.8 °F 47.7 °F 29.9 in WNW 2 mph 3 mph 74% 0 in 0 W/m2
03:48 55.8 °F 47.7 °F 29.9 in Calm   1 mph 74% 0 in 0 W/m2
03:53 55.6 °F 47.5 °F 29.9 in ESE 0.9 mph 2 mph 74% 0 in 0 W/m2
03:58 55.6 °F 47.8 °F 29.9 in WNW 2 mph 6 mph 75% 0 in 0 W/m2
04:03 55.6 °F 47.8 °F 29.9 in West 0.9 mph 3 mph 75% 0 in 0 W/m2
04:08 55.4 °F 47.7 °F 29.9 in West 0.9 mph 2 mph 75% 0 in 0 W/m2
04:13 55.2 °F 47.8 °F 29.9 in NW 0.9 mph 4 mph 76% 0 in 0 W/m2
04:18 55 °F 47.7 °F 29.9 in Calm   1 mph 76% 0 in 0 W/m2
04:23 54.7 °F 47.7 °F 29.9 in Calm   4 mph 77% 0 in 0 W/m2
04:29 54.3 °F 47.3 °F 29.9 in Calm     77% 0 in 0 W/m2
04:34 54.1 °F 47.5 °F 29.9 in Calm   1 mph 78% 0 in 0 W/m2
04:39 53.8 °F 47.5 °F 29.9 in Calm     79% 0 in 0 W/m2
04:44 53.4 °F 47.5 °F 29.9 in Calm     80% 0 in 0 W/m2
04:49 53.1 °F 47.1 °F 29.9 in Calm     80% 0 in 0 W/m2
04:54 52.9 °F 47.3 °F 29.9 in Calm     81% 0 in 0 W/m2
04:59 52.5 °F 47.1 °F 29.9 in Calm     82% 0 in 0 W/m2
05:04 52.3 °F 47.3 °F 29.9 in Calm     83% 0 in 0 W/m2
05:09 52.2 °F 47.1 °F 29.9 in Calm     83% 0 in 0 W/m2
05:14 52.2 °F 47.5 °F 29.9 in Calm   1 mph 84% 0 in 0 W/m2
05:19 52.2 °F 47.5 °F 29.9 in Calm   3 mph 84% 0 in 0 W/m2
05:24 52.5 °F 47.8 °F 29.9 in SW 0.9 mph 4 mph 84% 0 in 0 W/m2
05:29 53.1 °F 48 °F 29.9 in WSW 2 mph 3 mph 83% 0 in 0 W/m2
05:34 53.2 °F 47.8 °F 29.9 in West 2 mph 4 mph 82% 0 in 0 W/m2
05:39 53.4 °F 48 °F 29.9 in SW 6 mph 6 mph 82% 0 in 5 W/m2
05:44 53.6 °F 48.2 °F 29.9 in West 2.9 mph 4 mph 82% 0 in 5 W/m2
05:49 53.8 °F 48 °F 29.9 in WSW 2 mph 3 mph 81% 0 in 7 W/m2
05:54 54 °F 48.2 °F 29.9 in West 2.9 mph 4 mph 81% 0 in 7 W/m2
05:59 54.1 °F 48.4 °F 29.9 in West 0.9 mph 7 mph 81% 0 in 9 W/m2
06:04 54.1 °F 48.4 °F 29.9 in NW 0.9 mph 2 mph 81% 0 in 11 W/m2
06:09 54.1 °F 48.4 °F 29.9 in WSW 2 mph 4 mph 81% 0 in 16 W/m2
06:14 54.1 °F 48.4 °F 29.9 in NW 0.9 mph 3 mph 81% 0 in 19 W/m2
06:19 54.1 °F 48.4 °F 29.9 in West 2 mph 8 mph 81% 0 in 21 W/m2
06:24 54.3 °F 48.6 °F 29.9 in WSW 2.9 mph 3 mph 81% 0 in 23 W/m2
06:29 54.5 °F 48.7 °F 29.9 in WSW 0.9 mph 3 mph 81% 0 in 25 W/m2
06:35 54.7 °F 48.9 °F 29.9 in West 2 mph 6 mph 81% 0 in 26 W/m2
06:40 54.9 °F 48.7 °F 29.9 in WSW 0.9 mph 3 mph 80% 0 in 28 W/m2
06:45 55 °F 48.9 °F 29.9 in West 2.9 mph 3 mph 80% 0 in 28 W/m2
06:50 55.2 °F 49.1 °F 29.9 in WSW 2.9 mph 4 mph 80% 0 in 30 W/m2
06:55 55.4 °F 49.3 °F 29.9 in WNW 0.9 mph 4 mph 80% 0 in 32 W/m2
07:00 55.8 °F 49.6 °F 29.9 in WNW 2 mph 3 mph 80% 0 in 33 W/m2
07:05 55.9 °F 49.5 °F 29.9 in South 2 mph 9 mph 79% 0 in 40 W/m2
07:10 55.9 °F 49.5 °F 29.9 in NW 2.9 mph 3 mph 79% 0 in 83 W/m2
07:15 56.3 °F 49.8 °F 29.9 in WNW 2.9 mph 9 mph 79% 0 in 72 W/m2
07:20 56.5 °F 49.6 °F 29.9 in NE 0.9 mph 2 mph 78% 0 in 77 W/m2
07:25 56.7 °F 49.8 °F 29.9 in West 2 mph 5 mph 78% 0 in 81 W/m2
07:30 56.7 °F 49.8 °F 29.9 in East 0.9 mph 7 mph 78% 0 in 95 W/m2
07:35 56.7 °F 49.8 °F 29.9 in West 0.9 mph 3 mph 78% 0 in 81 W/m2
Juneau County Weather
Compliments of Weather Underground - 2 mb